createdAt,value
2023-04-25T00:00:29.119Z,100629.13
2023-04-25T00:02:57.731Z,100626.41
2023-04-25T00:05:45.191Z,100623.84
2023-04-25T00:08:12.277Z,100628.47
2023-04-25T00:10:38.888Z,100636.09
2023-04-25T00:14:01.658Z,100644.97
2023-04-25T00:16:28.303Z,100652.72
2023-04-25T00:18:54.946Z,100651.38
2023-04-25T00:21:21.853Z,100655.09
2023-04-25T00:23:48.649Z,100652.00
2023-04-25T00:30:19.604Z,100654.22
2023-04-25T00:33:42.411Z,100656.16
2023-04-25T00:36:16.398Z,100660.66
2023-04-25T00:38:42.951Z,100660.16
2023-04-25T00:45:27.715Z,100658.16
2023-04-25T00:47:55.464Z,100662.50
2023-04-25T00:55:09.748Z,100657.97
2023-04-25T00:57:40.737Z,100661.00
2023-04-25T01:00:08.320Z,100661.16
2023-04-25T01:03:31.843Z,100662.91
2023-04-25T01:06:24.318Z,100661.28
2023-04-25T01:08:52.050Z,100663.22
2023-04-25T01:11:18.988Z,100665.41
2023-04-25T01:14:42.341Z,100661.53
2023-04-25T01:17:16.328Z,100672.13
2023-04-25T01:23:24.676Z,100671.44
2023-04-25T01:34:05.183Z,100675.13
2023-04-25T01:36:32.356Z,100677.69
2023-04-25T01:42:42.621Z,100677.59
2023-04-25T02:01:06.775Z,100680.84
2023-04-25T02:04:36.410Z,100685.34
2023-04-25T02:10:43.970Z,100690.50
2023-04-25T02:13:10.705Z,100695.50
2023-04-25T02:15:37.325Z,100697.28
2023-04-25T02:18:48.307Z,100695.66
2023-04-25T02:21:14.864Z,100711.41
2023-04-25T02:23:41.557Z,100702.88
2023-04-25T02:27:04.396Z,100702.19
2023-04-25T02:29:31.102Z,100704.25
2023-04-25T02:32:16.421Z,100714.59
2023-04-25T02:44:03.760Z,100728.56
2023-04-25T02:47:26.971Z,100732.13
2023-04-25T02:49:53.662Z,100734.16
2023-04-25T02:56:10.898Z,100742.16
2023-04-25T02:58:37.514Z,100739.75
2023-04-25T03:04:44.621Z,100746.97
2023-04-25T03:10:53.175Z,100744.00
2023-04-25T03:13:19.765Z,100745.09
2023-04-25T03:15:46.363Z,100749.28
2023-04-25T03:18:15.370Z,100748.63
2023-04-25T03:20:42.937Z,100756.34
2023-04-25T03:23:09.675Z,100753.09
2023-04-25T03:25:36.301Z,100751.63
2023-04-25T03:28:02.829Z,100753.25
2023-04-25T03:34:20.282Z,100757.16
2023-04-25T03:36:46.927Z,100758.09
2023-04-25T03:40:09.783Z,100751.19
2023-04-25T03:42:36.381Z,100753.94
2023-04-25T03:45:03.076Z,100755.84
2023-04-25T03:48:25.833Z,100755.84
2023-04-25T03:50:53.193Z,100761.94
2023-04-25T03:53:19.964Z,100758.69
2023-04-25T03:55:46.656Z,100767.25
2023-04-25T03:58:31.732Z,100771.44
2023-04-25T04:00:58.292Z,100776.31
2023-04-25T04:04:02.529Z,100783.09
2023-04-25T04:06:29.733Z,100782.56
2023-04-25T04:08:56.585Z,100784.31
2023-04-25T04:11:23.307Z,100780.41
2023-04-25T04:17:41.652Z,100792.63
2023-04-25T04:20:09.670Z,100787.47
2023-04-25T04:23:39.968Z,100789.63
2023-04-25T04:33:38.609Z,100794.63
2023-04-25T04:36:24.103Z,100804.25
2023-04-25T04:42:41.960Z,100806.19
2023-04-25T04:46:32.003Z,100814.88
2023-04-25T04:48:59.702Z,100817.56
2023-04-25T04:51:26.649Z,100815.16
2023-04-25T04:53:53.458Z,100818.66
2023-04-25T04:56:21.975Z,100822.06
2023-04-25T05:02:39.692Z,100831.81
2023-04-25T05:08:57.907Z,100840.09
2023-04-25T05:11:26.093Z,100844.97
2023-04-25T05:14:30.434Z,100854.47
2023-04-25T05:16:57.154Z,100850.25
2023-04-25T05:20:01.506Z,100856.06
2023-04-25T05:26:56.124Z,100856.34
2023-04-25T05:29:22.723Z,100862.03
2023-04-25T05:32:08.724Z,100869.75
2023-04-25T05:34:35.406Z,100862.41
2023-04-25T05:37:02.081Z,100869.72
2023-04-25T05:43:18.918Z,100875.38
2023-04-25T05:47:08.957Z,100879.59
2023-04-25T05:49:35.997Z,100877.41
2023-04-25T05:55:53.363Z,100898.25
2023-04-25T05:58:19.951Z,100903.13
2023-04-25T06:01:24.308Z,100902.00
2023-04-25T06:03:53.030Z,100905.53
2023-04-25T06:06:20.220Z,100897.97
2023-04-25T06:12:37.269Z,100908.06
2023-04-25T06:16:00.534Z,100913.28
2023-04-25T06:18:27.210Z,100914.09
2023-04-25T06:20:53.806Z,100912.47
2023-04-25T06:23:20.427Z,100913.94
2023-04-25T06:25:48.390Z,100915.81
2023-04-25T06:28:15.061Z,100919.34
2023-04-25T06:35:11.719Z,100934.44
2023-04-25T06:37:38.398Z,100930.06
2023-04-25T06:40:05.717Z,100925.94
2023-04-25T06:47:01.528Z,100933.78
2023-04-25T06:49:28.199Z,100935.50
2023-04-25T06:55:45.492Z,100949.16
2023-04-25T06:58:12.101Z,100948.03
2023-04-25T07:00:38.831Z,100953.66
2023-04-25T07:03:05.635Z,100954.97
2023-04-25T07:05:32.352Z,100957.00
2023-04-25T07:09:02.494Z,100958.38
2023-04-25T07:15:11.120Z,100953.63
2023-04-25T07:17:37.795Z,100943.91
2023-04-25T07:27:35.462Z,100954.78
2023-04-25T07:30:02.205Z,100952.41
2023-04-25T07:32:28.840Z,100955.94
2023-04-25T07:34:55.613Z,100960.81
2023-04-25T07:37:22.225Z,100953.03
2023-04-25T07:39:49.056Z,100961.34
2023-04-25T07:42:15.664Z,100968.28
2023-04-25T07:44:43.432Z,100962.06
2023-04-25T07:47:36.150Z,100966.47
2023-04-25T07:50:04.464Z,100970.97
2023-04-25T07:56:21.207Z,100970.88
2023-04-25T07:58:47.852Z,100977.72
2023-04-25T08:01:17.757Z,100981.03
2023-04-25T08:03:44.745Z,100980.31
2023-04-25T08:06:12.126Z,100997.44
2023-04-25T08:16:21.079Z,100995.91
2023-04-25T08:22:38.605Z,101003.63
2023-04-25T08:25:05.789Z,101011.41
2023-04-25T08:27:32.439Z,101006.53
2023-04-25T08:29:59.833Z,101016.16
2023-04-25T08:36:07.457Z,101013.88
2023-04-25T08:42:25.815Z,101034.53
2023-04-25T08:44:55.436Z,101027.88
2023-04-25T08:47:25.656Z,101025.81
2023-04-25T08:53:57.880Z,101031.22
2023-04-25T09:00:16.354Z,101047.69
2023-04-25T09:06:25.264Z,101061.78
2023-04-25T09:08:51.807Z,101068.16
2023-04-25T09:11:20.530Z,101069.00
2023-04-25T09:13:48.693Z,101062.34
2023-04-25T09:16:18.515Z,101068.50
2023-04-25T09:18:49.015Z,101073.41
2023-04-25T09:21:15.863Z,101071.00
2023-04-25T09:23:46.362Z,101080.13
2023-04-25T09:26:18.289Z,101077.03
2023-04-25T09:28:46.834Z,101074.69
2023-04-25T09:31:13.485Z,101068.22
2023-04-25T09:33:42.154Z,101081.63
2023-04-25T09:39:56.273Z,101093.41
2023-04-25T09:42:25.994Z,101090.28
2023-04-25T09:56:14.740Z,101134.91
2023-04-25T09:59:52.474Z,101138.81
2023-04-25T10:02:21.735Z,101137.88
2023-04-25T10:05:02.788Z,101133.91
2023-04-25T10:11:10.323Z,101136.00
2023-04-25T10:13:37.279Z,101145.31
2023-04-25T10:16:06.183Z,101144.34
2023-04-25T10:18:33.824Z,101146.13
2023-04-25T10:21:05.751Z,101142.09
2023-04-25T10:27:13.587Z,101143.28
2023-04-25T10:29:44.396Z,101137.13
2023-04-25T10:32:11.128Z,101136.97
2023-04-25T10:34:48.015Z,101139.72
2023-04-25T10:37:14.943Z,101135.84
2023-04-25T10:39:42.791Z,101134.38
2023-04-25T10:42:10.030Z,101137.28
2023-04-25T10:44:40.409Z,101133.25
2023-04-25T10:47:08.952Z,101128.84
2023-04-25T10:50:09.565Z,101128.19
2023-04-25T10:52:36.192Z,101129.69
2023-04-25T10:58:45.540Z,101130.94
2023-04-25T11:01:13.784Z,101119.75
2023-04-25T11:03:44.959Z,101128.34
2023-04-25T11:06:17.856Z,101140.69
2023-04-25T11:08:52.607Z,101154.31
2023-04-25T11:11:20.128Z,101154.78
2023-04-25T11:13:51.178Z,101159.63
2023-04-25T11:20:12.544Z,101147.59
2023-04-25T11:22:41.934Z,101150.84
2023-04-25T11:25:10.802Z,101155.09
2023-04-25T11:31:28.418Z,101160.22
2023-04-25T11:33:57.763Z,101153.22
2023-04-25T11:36:28.512Z,101155.03
2023-04-25T11:42:48.143Z,101156.38
2023-04-25T11:45:16.372Z,101160.47
2023-04-25T11:47:43.209Z,101147.50
2023-04-25T11:50:10.898Z,101142.16
2023-04-25T11:52:48.968Z,101148.34
2023-04-25T11:55:15.540Z,101168.16
2023-04-25T11:57:43.948Z,101179.34
2023-04-25T12:00:18.145Z,101193.41
2023-04-25T12:02:48.056Z,101197.22
2023-04-25T12:05:31.135Z,101196.97
2023-04-25T12:08:13.582Z,101185.88
2023-04-25T12:10:41.639Z,101199.84
2023-04-25T12:13:29.136Z,101203.38
2023-04-25T12:15:57.051Z,101197.44
2023-04-25T12:18:28.923Z,101195.06
2023-04-25T12:20:56.371Z,101206.00
2023-04-25T12:23:30.102Z,101207.53
2023-04-25T12:25:57.225Z,101204.78
2023-04-25T12:28:28.754Z,101204.16
2023-04-25T12:31:06.196Z,101209.25
2023-04-25T12:33:40.400Z,101213.28
2023-04-25T12:36:10.360Z,101208.44
2023-04-25T12:38:41.956Z,101199.97
2023-04-25T12:41:09.516Z,101196.41
2023-04-25T12:43:36.539Z,101199.19
2023-04-25T12:49:53.720Z,101188.56
2023-04-25T12:53:30.436Z,101193.59
2023-04-25T12:55:58.156Z,101191.13
2023-04-25T13:05:56.116Z,101220.22
2023-04-25T13:08:22.810Z,101210.19
2023-04-25T13:10:49.401Z,101214.06
2023-04-25T13:13:15.976Z,101219.28
2023-04-25T13:15:42.573Z,101220.94
2023-04-25T13:18:09.204Z,101215.56
2023-04-25T13:20:36.119Z,101212.00
2023-04-25T13:23:03.147Z,101212.63
2023-04-25T13:25:29.910Z,101221.25
2023-04-25T13:27:56.520Z,101226.59
2023-04-25T13:30:23.182Z,101229.03
2023-04-25T13:32:50.184Z,101230.19
2023-04-25T13:39:07.807Z,101228.06
2023-04-25T13:45:14.902Z,101226.50
2023-04-25T13:47:41.519Z,101228.09
2023-04-25T13:50:43.692Z,101240.72
2023-04-25T13:53:10.480Z,101237.31
2023-04-25T13:55:37.916Z,101236.34
2023-04-25T13:58:11.153Z,101243.34
2023-04-25T14:00:40.455Z,101252.59
2023-04-25T14:03:10.548Z,101253.56
2023-04-25T14:05:40.056Z,101249.97
2023-04-25T14:08:09.030Z,101255.53
2023-04-25T14:10:35.864Z,101252.97
2023-04-25T14:13:04.236Z,101245.16
2023-04-25T14:15:33.836Z,101246.44
2023-04-25T14:18:02.135Z,101250.38
2023-04-25T14:20:29.474Z,101238.34
2023-04-25T14:22:57.248Z,101243.84
2023-04-25T14:26:03.796Z,101248.00
2023-04-25T14:28:30.483Z,101248.63
2023-04-25T14:30:58.060Z,101236.19
2023-04-25T14:33:24.757Z,101238.94
2023-04-25T14:36:10.447Z,101248.78
2023-04-25T14:38:37.239Z,101243.94
2023-04-25T14:41:22.405Z,101245.84
2023-04-25T14:43:49.256Z,101249.28
2023-04-25T14:46:34.626Z,101247.25
2023-04-25T14:49:01.824Z,101256.75
2023-04-25T14:51:28.553Z,101272.28
2023-04-25T14:54:16.687Z,101277.66
2023-04-25T14:56:43.206Z,101273.75
2023-04-25T14:59:29.245Z,101290.44
2023-04-25T15:01:58.407Z,101301.78
2023-04-25T15:04:46.190Z,101316.72
2023-04-25T15:07:12.900Z,101321.66
2023-04-25T15:09:39.546Z,101327.47
2023-04-25T15:12:06.351Z,101313.91
2023-04-25T15:14:34.836Z,101313.16
2023-04-25T15:17:38.736Z,101306.63
2023-04-25T15:20:07.787Z,101303.19
2023-04-25T15:26:24.561Z,101296.22
2023-04-25T15:32:31.646Z,101296.31
2023-04-25T15:35:16.929Z,101305.31
2023-04-25T15:41:34.311Z,101305.25
2023-04-25T15:44:04.059Z,101295.50
2023-04-25T15:47:26.835Z,101298.56
2023-04-25T15:49:53.442Z,101304.50
2023-04-25T15:52:22.128Z,101300.72
2023-04-25T15:54:49.374Z,101296.19
2023-04-25T15:58:13.021Z,101296.41
2023-04-25T16:00:40.419Z,101299.72
2023-04-25T16:06:58.114Z,101301.28
2023-04-25T16:09:24.720Z,101309.00
2023-04-25T16:12:47.753Z,101303.53
2023-04-25T16:15:14.484Z,101308.28
2023-04-25T16:18:37.556Z,101310.94
2023-04-25T16:21:04.344Z,101320.66
2023-04-25T16:23:31.607Z,101326.13
2023-04-25T16:25:58.249Z,101320.78
2023-04-25T16:28:25.878Z,101326.19
2023-04-25T16:30:52.540Z,101332.91
2023-04-25T16:37:10.599Z,101326.56
2023-04-25T16:43:27.638Z,101334.78
2023-04-25T16:49:44.759Z,101335.75
2023-04-25T16:52:12.614Z,101338.47
2023-04-25T16:54:41.558Z,101342.88
2023-04-25T16:57:11.047Z,101331.16
2023-04-25T16:59:38.795Z,101337.53
2023-04-25T17:02:05.757Z,101340.63
2023-04-25T17:04:32.454Z,101341.75
2023-04-25T17:06:59.124Z,101343.97
2023-04-25T17:13:16.817Z,101369.25
2023-04-25T17:19:34.184Z,101378.13
2023-04-25T17:25:51.232Z,101372.63
2023-04-25T17:28:17.900Z,101378.88
2023-04-25T17:42:07.565Z,101386.97
2023-04-25T17:44:54.849Z,101395.31
2023-04-25T17:47:21.595Z,101400.22
2023-04-25T17:50:51.772Z,101395.22
2023-04-25T17:56:59.129Z,101397.00
2023-04-25T18:00:21.973Z,101388.97
2023-04-25T18:02:51.261Z,101404.06
2023-04-25T18:05:38.217Z,101403.25
2023-04-25T18:08:06.697Z,101418.78
2023-04-25T18:14:15.237Z,101422.84
2023-04-25T18:16:45.031Z,101419.75
2023-04-25T18:23:02.805Z,101432.25
2023-04-25T18:29:39.299Z,101432.53
2023-04-25T18:32:06.482Z,101436.03
2023-04-25T18:34:33.727Z,101436.47
2023-04-25T18:37:00.281Z,101433.47
2023-04-25T18:39:27.736Z,101436.03
2023-04-25T18:42:04.348Z,101439.03
2023-04-25T18:44:44.158Z,101445.59
2023-04-25T18:47:11.265Z,101437.97
2023-04-25T18:49:37.892Z,101439.28
2023-04-25T18:52:23.153Z,101446.78
2023-04-25T18:54:49.798Z,101444.59
2023-04-25T18:57:17.830Z,101445.81
2023-04-25T19:00:47.524Z,101456.56
2023-04-25T19:07:05.333Z,101460.88
2023-04-25T19:09:31.909Z,101462.22
2023-04-25T19:16:08.053Z,101473.47
2023-04-25T19:18:34.766Z,101474.81
2023-04-25T19:25:02.940Z,101470.19
2023-04-25T19:31:27.594Z,101487.00
2023-04-25T19:37:35.889Z,101486.31
2023-04-25T19:43:43.196Z,101483.56
2023-04-25T19:46:28.808Z,101471.16
2023-04-25T19:49:14.413Z,101476.84
2023-04-25T19:51:40.962Z,101484.84
2023-04-25T19:54:45.599Z,101486.19
2023-04-25T19:57:13.729Z,101486.81
2023-04-25T19:59:41.813Z,101485.56
2023-04-25T20:02:10.779Z,101485.84
2023-04-25T20:08:28.881Z,101495.78
2023-04-25T20:10:55.406Z,101497.91
2023-04-25T20:17:12.688Z,101502.47
2023-04-25T20:19:39.845Z,101500.28
2023-04-25T20:22:06.633Z,101502.31
2023-04-25T20:28:23.533Z,101504.66
2023-04-25T20:34:40.514Z,101503.50
2023-04-25T20:37:08.507Z,101502.91
2023-04-25T20:39:35.892Z,101499.66
2023-04-25T20:42:03.082Z,101504.81
2023-04-25T20:44:29.780Z,101504.94
2023-04-25T20:46:56.554Z,101501.53
2023-04-25T20:49:23.107Z,101511.16
2023-04-25T20:51:51.006Z,101506.22
2023-04-25T20:54:18.084Z,101502.16
2023-04-25T20:56:45.488Z,101505.22
2023-04-25T20:59:13.175Z,101509.00
2023-04-25T21:02:36.110Z,101508.78
2023-04-25T21:08:53.964Z,101507.06
2023-04-25T21:11:41.074Z,101509.16
2023-04-25T21:14:07.750Z,101504.38
2023-04-25T21:16:35.622Z,101509.06
2023-04-25T21:22:49.806Z,101518.56
2023-04-25T21:28:30.096Z,101515.78
2023-04-25T21:38:28.149Z,101520.00
2023-04-25T21:41:32.138Z,101518.47
2023-04-25T21:43:58.721Z,101517.91
2023-04-25T21:50:06.274Z,101525.56
2023-04-25T21:53:10.972Z,101522.66
2023-04-25T21:55:37.728Z,101528.84
2023-04-25T21:58:11.641Z,101516.94
2023-04-25T22:00:39.712Z,101534.47
2023-04-25T22:06:57.168Z,101530.03
2023-04-25T22:13:15.517Z,101534.91
2023-04-25T22:15:42.264Z,101545.53
2023-04-25T22:21:49.742Z,101543.66
2023-04-25T22:24:16.380Z,101548.22
2023-04-25T22:27:02.500Z,101536.41
2023-04-25T22:29:29.063Z,101537.56
2023-04-25T22:32:51.861Z,101548.91
2023-04-25T22:39:09.322Z,101553.44
2023-04-25T22:45:26.769Z,101554.72
2023-04-25T22:48:50.026Z,101556.69
2023-04-25T22:51:16.979Z,101562.97
2023-04-25T22:53:45.287Z,101562.47
2023-04-25T22:56:12.917Z,101564.47
2023-04-25T22:58:43.500Z,101570.75
2023-04-25T23:01:11.331Z,101578.69
2023-04-25T23:03:38.352Z,101571.06
2023-04-25T23:06:05.936Z,101577.25
2023-04-25T23:08:33.286Z,101570.59
2023-04-25T23:15:37.535Z,101564.13
2023-04-25T23:18:04.404Z,101564.25
2023-04-25T23:20:49.674Z,101563.75
2023-04-25T23:23:17.029Z,101568.19
2023-04-25T23:29:24.429Z,101565.13
2023-04-25T23:32:48.205Z,101567.91
2023-04-25T23:35:14.822Z,101572.31
2023-04-25T23:41:32.174Z,101576.97
2023-04-25T23:43:59.068Z,101566.09
2023-04-25T23:50:07.105Z,101575.28
2023-04-25T23:56:54.012Z,101562.84
